sensor_id;sensor_type;location;lat;lon;timestamp;pressure;altitude;pressure_sealevel;temperature;humidity
46955;BME280;32708;51.212;6.788;2023-06-19T00:02:22;100280.06;;;27.62;63.16
46955;BME280;32708;51.212;6.788;2023-06-19T00:04:49;100285.44;;;27.57;63.17
46955;BME280;32708;51.212;6.788;2023-06-19T00:07:15;100282.00;;;27.78;62.28
46955;BME280;32708;51.212;6.788;2023-06-19T00:09:42;100282.63;;;27.57;63.51
46955;BME280;32708;51.212;6.788;2023-06-19T00:12:09;100284.22;;;27.45;63.54
46955;BME280;32708;51.212;6.788;2023-06-19T00:14:36;100278.50;;;27.61;63.13
46955;BME280;32708;51.212;6.788;2023-06-19T00:17:02;100283.97;;;27.39;63.78
46955;BME280;32708;51.212;6.788;2023-06-19T00:19:29;100269.25;;;27.23;64.63
46955;BME280;32708;51.212;6.788;2023-06-19T00:21:55;100275.84;;;27.29;64.93
46955;BME280;32708;51.212;6.788;2023-06-19T00:24:23;100285.13;;;27.55;63.07
46955;BME280;32708;51.212;6.788;2023-06-19T00:26:50;100283.34;;;27.61;62.87
46955;BME280;32708;51.212;6.788;2023-06-19T00:29:16;100285.31;;;27.48;63.52
46955;BME280;32708;51.212;6.788;2023-06-19T00:31:42;100286.75;;;27.27;64.57
46955;BME280;32708;51.212;6.788;2023-06-19T00:34:09;100283.75;;;27.47;64.22
46955;BME280;32708;51.212;6.788;2023-06-19T00:36:35;100283.06;;;27.30;64.92
46955;BME280;32708;51.212;6.788;2023-06-19T00:39:07;100288.75;;;27.26;65.39
46955;BME280;32708;51.212;6.788;2023-06-19T00:41:36;100292.59;;;27.03;66.18
46955;BME280;32708;51.212;6.788;2023-06-19T00:44:02;100304.31;;;26.98;66.48
46955;BME280;32708;51.212;6.788;2023-06-19T00:46:29;100300.19;;;27.03;67.01
46955;BME280;32708;51.212;6.788;2023-06-19T00:48:56;100308.00;;;27.11;66.83
46955;BME280;32708;51.212;6.788;2023-06-19T00:51:23;100301.44;;;27.31;65.48
46955;BME280;32708;51.212;6.788;2023-06-19T00:53:50;100308.63;;;27.32;65.90
46955;BME280;32708;51.212;6.788;2023-06-19T00:56:16;100303.09;;;27.15;66.16
46955;BME280;32708;51.212;6.788;2023-06-19T00:58:44;100320.38;;;27.27;66.27
46955;BME280;32708;51.212;6.788;2023-06-19T01:01:11;100310.94;;;27.21;66.23
46955;BME280;32708;51.212;6.788;2023-06-19T01:03:37;100318.50;;;27.07;67.10
46955;BME280;32708;51.212;6.788;2023-06-19T01:06:14;100313.19;;;27.26;65.91
46955;BME280;32708;51.212;6.788;2023-06-19T01:11:33;100323.97;;;27.27;67.07
46955;BME280;32708;51.212;6.788;2023-06-19T01:14:18;100317.81;;;27.03;68.73
46955;BME280;32708;51.212;6.788;2023-06-19T01:16:46;100322.28;;;27.01;68.44
46955;BME280;32708;51.212;6.788;2023-06-19T01:19:20;100316.22;;;27.02;69.08
46955;BME280;32708;51.212;6.788;2023-06-19T01:21:48;100315.13;;;26.83;69.94
46955;BME280;32708;51.212;6.788;2023-06-19T01:24:15;100319.03;;;27.02;69.77
46955;BME280;32708;51.212;6.788;2023-06-19T01:26:42;100311.94;;;26.52;72.43
46955;BME280;32708;51.212;6.788;2023-06-19T01:29:17;100300.63;;;26.72;71.14
46955;BME280;32708;51.212;6.788;2023-06-19T01:32:04;100306.97;;;26.89;70.76
46955;BME280;32708;51.212;6.788;2023-06-19T01:34:34;100303.88;;;26.54;72.33
46955;BME280;32708;51.212;6.788;2023-06-19T01:37:04;100300.03;;;26.48;73.86
46955;BME280;32708;51.212;6.788;2023-06-19T01:39:33;100296.88;;;26.63;73.05
46955;BME280;32708;51.212;6.788;2023-06-19T01:42:04;100302.56;;;26.59;73.08
46955;BME280;32708;51.212;6.788;2023-06-19T01:44:32;100301.00;;;26.42;74.49
46955;BME280;32708;51.212;6.788;2023-06-19T01:46:58;100303.50;;;26.36;74.62
46955;BME280;32708;51.212;6.788;2023-06-19T01:49:25;100308.16;;;26.43;74.58
46955;BME280;32708;51.212;6.788;2023-06-19T01:51:52;100302.69;;;26.39;75.24
46955;BME280;32708;51.212;6.788;2023-06-19T01:54:18;100311.56;;;26.50;74.61
46955;BME280;32708;51.212;6.788;2023-06-19T01:56:45;100312.81;;;26.66;73.83
46955;BME280;32708;51.212;6.788;2023-06-19T01:59:13;100320.84;;;26.64;73.96
46955;BME280;32708;51.212;6.788;2023-06-19T02:01:40;100324.63;;;26.73;73.32
46955;BME280;32708;51.212;6.788;2023-06-19T02:04:06;100318.03;;;26.64;73.59
46955;BME280;32708;51.212;6.788;2023-06-19T02:06:32;100333.09;;;26.70;73.95
46955;BME280;32708;51.212;6.788;2023-06-19T02:09:00;100332.56;;;26.75;73.48
46955;BME280;32708;51.212;6.788;2023-06-19T02:11:26;100336.19;;;26.59;73.81
46955;BME280;32708;51.212;6.788;2023-06-19T02:13:54;100338.06;;;26.78;73.40
46955;BME280;32708;51.212;6.788;2023-06-19T02:16:20;100342.13;;;26.61;74.27
46955;BME280;32708;51.212;6.788;2023-06-19T02:18:48;100354.19;;;26.42;75.38
46955;BME280;32708;51.212;6.788;2023-06-19T02:21:15;100360.41;;;26.66;75.40
46955;BME280;32708;51.212;6.788;2023-06-19T02:23:41;100364.44;;;26.48;75.40
46955;BME280;32708;51.212;6.788;2023-06-19T02:26:07;100369.34;;;26.44;76.18
46955;BME280;32708;51.212;6.788;2023-06-19T02:28:34;100371.78;;;26.42;76.47
46955;BME280;32708;51.212;6.788;2023-06-19T02:31:00;100374.66;;;26.02;78.11
46955;BME280;32708;51.212;6.788;2023-06-19T02:33:27;100381.75;;;26.43;76.58
46955;BME280;32708;51.212;6.788;2023-06-19T02:35:53;100380.09;;;26.46;76.38
46955;BME280;32708;51.212;6.788;2023-06-19T02:38:27;100381.19;;;26.32;76.68
46955;BME280;32708;51.212;6.788;2023-06-19T02:40:55;100385.59;;;25.97;78.61
46955;BME280;32708;51.212;6.788;2023-06-19T02:43:23;100383.28;;;25.92;78.77
46955;BME280;32708;51.212;6.788;2023-06-19T02:45:50;100392.16;;;26.06;78.38
46955;BME280;32708;51.212;6.788;2023-06-19T02:48:16;100396.47;;;25.71;78.76
46955;BME280;32708;51.212;6.788;2023-06-19T02:50:43;100403.50;;;25.99;76.99
46955;BME280;32708;51.212;6.788;2023-06-19T02:53:10;100417.66;;;25.72;78.01
46955;BME280;32708;51.212;6.788;2023-06-19T02:55:37;100413.38;;;26.24;75.65
46955;BME280;32708;51.212;6.788;2023-06-19T02:58:03;100408.91;;;26.26;74.50
46955;BME280;32708;51.212;6.788;2023-06-19T03:00:30;100418.88;;;26.27;74.91
46955;BME280;32708;51.212;6.788;2023-06-19T03:02:57;100406.13;;;26.06;75.50
46955;BME280;32708;51.212;6.788;2023-06-19T03:05:25;100400.72;;;25.60;78.29
46955;BME280;32708;51.212;6.788;2023-06-19T03:07:53;100406.50;;;25.69;77.91
46955;BME280;32708;51.212;6.788;2023-06-19T03:10:19;100420.22;;;25.83;78.12
46955;BME280;32708;51.212;6.788;2023-06-19T03:12:46;100416.41;;;25.53;78.98
46955;BME280;32708;51.212;6.788;2023-06-19T03:15:12;100415.91;;;25.78;78.52
46955;BME280;32708;51.212;6.788;2023-06-19T03:17:42;100419.34;;;25.66;79.06
46955;BME280;32708;51.212;6.788;2023-06-19T03:20:11;100425.34;;;25.88;78.32
46955;BME280;32708;51.212;6.788;2023-06-19T03:22:40;100429.34;;;25.87;78.01
46955;BME280;32708;51.212;6.788;2023-06-19T03:25:08;100439.97;;;25.76;78.91
46955;BME280;32708;51.212;6.788;2023-06-19T03:27:35;100439.50;;;25.58;80.07
46955;BME280;32708;51.212;6.788;2023-06-19T03:30:04;100443.41;;;25.40;81.59
46955;BME280;32708;51.212;6.788;2023-06-19T03:32:39;100444.03;;;25.28;82.89
46955;BME280;32708;51.212;6.788;2023-06-19T03:35:05;100450.97;;;25.20;83.17
46955;BME280;32708;51.212;6.788;2023-06-19T03:37:34;100467.59;;;25.27;83.39
46955;BME280;32708;51.212;6.788;2023-06-19T03:40:03;100467.47;;;25.58;81.81
46955;BME280;32708;51.212;6.788;2023-06-19T03:42:35;100464.13;;;25.86;81.20
46955;BME280;32708;51.212;6.788;2023-06-19T03:45:01;100476.63;;;25.58;82.27
46955;BME280;32708;51.212;6.788;2023-06-19T03:47:27;100483.03;;;25.35;83.92
46955;BME280;32708;51.212;6.788;2023-06-19T03:49:53;100476.34;;;25.52;83.89
46955;BME280;32708;51.212;6.788;2023-06-19T03:52:20;100479.31;;;24.95;87.12
46955;BME280;32708;51.212;6.788;2023-06-19T03:54:46;100481.22;;;25.25;85.61
46955;BME280;32708;51.212;6.788;2023-06-19T03:57:12;100490.16;;;24.62;88.58
46955;BME280;32708;51.212;6.788;2023-06-19T03:59:39;100491.78;;;25.14;87.27
46955;BME280;32708;51.212;6.788;2023-06-19T04:02:05;100500.69;;;25.05;87.80
46955;BME280;32708;51.212;6.788;2023-06-19T04:04:31;100504.16;;;25.13;87.64
46955;BME280;32708;51.212;6.788;2023-06-19T04:06:57;100518.28;;;25.29;86.99
46955;BME280;32708;51.212;6.788;2023-06-19T04:09:25;100517.47;;;25.52;85.95
46955;BME280;32708;51.212;6.788;2023-06-19T04:11:53;100519.53;;;25.24;87.42
46955;BME280;32708;51.212;6.788;2023-06-19T04:14:20;100525.69;;;25.16;88.25
46955;BME280;32708;51.212;6.788;2023-06-19T04:16:50;100529.25;;;24.89;90.37
46955;BME280;32708;51.212;6.788;2023-06-19T04:19:16;100536.31;;;24.97;90.03
46955;BME280;32708;51.212;6.788;2023-06-19T04:21:42;100540.25;;;25.04;90.75
46955;BME280;32708;51.212;6.788;2023-06-19T04:24:09;100537.69;;;24.25;95.09
46955;BME280;32708;51.212;6.788;2023-06-19T04:26:36;100544.63;;;24.74;93.41
46955;BME280;32708;51.212;6.788;2023-06-19T04:29:03;100542.91;;;24.84;93.03
46955;BME280;32708;51.212;6.788;2023-06-19T04:31:31;100550.56;;;24.80;93.42
46955;BME280;32708;51.212;6.788;2023-06-19T04:33:57;100560.97;;;24.76;93.44
46955;BME280;32708;51.212;6.788;2023-06-19T04:36:23;100553.84;;;24.98;92.01
46955;BME280;32708;51.212;6.788;2023-06-19T04:38:50;100543.25;;;25.16;91.19
46955;BME280;32708;51.212;6.788;2023-06-19T04:41:19;100546.25;;;24.98;92.22
46955;BME280;32708;51.212;6.788;2023-06-19T04:43:46;100546.16;;;25.56;89.65
46955;BME280;32708;51.212;6.788;2023-06-19T04:46:12;100550.09;;;25.82;88.13
46955;BME280;32708;51.212;6.788;2023-06-19T04:48:39;100555.63;;;25.39;90.68
46955;BME280;32708;51.212;6.788;2023-06-19T04:51:06;100545.88;;;25.50;90.01
46955;BME280;32708;51.212;6.788;2023-06-19T04:53:32;100560.81;;;24.59;93.74
46955;BME280;32708;51.212;6.788;2023-06-19T04:55:59;100558.28;;;24.95;92.82
46955;BME280;32708;51.212;6.788;2023-06-19T04:58:25;100556.75;;;24.91;93.05
46955;BME280;32708;51.212;6.788;2023-06-19T05:00:51;100556.06;;;25.37;90.44
46955;BME280;32708;51.212;6.788;2023-06-19T05:03:18;100556.84;;;25.61;90.15
46955;BME280;32708;51.212;6.788;2023-06-19T05:05:45;100561.38;;;25.28;91.23
46955;BME280;32708;51.212;6.788;2023-06-19T05:08:12;100557.22;;;25.87;87.81
46955;BME280;32708;51.212;6.788;2023-06-19T05:10:39;100566.81;;;25.62;89.89
46955;BME280;32708;51.212;6.788;2023-06-19T05:13:05;100564.22;;;25.51;90.88
46955;BME280;32708;51.212;6.788;2023-06-19T05:15:31;100564.63;;;25.27;91.77
46955;BME280;32708;51.212;6.788;2023-06-19T05:17:58;100566.81;;;25.15;92.80
46955;BME280;32708;51.212;6.788;2023-06-19T05:20:24;100560.00;;;25.40;91.94
46955;BME280;32708;51.212;6.788;2023-06-19T05:22:50;100564.06;;;25.12;92.58
46955;BME280;32708;51.212;6.788;2023-06-19T05:25:17;100564.13;;;25.55;90.70
46955;BME280;32708;51.212;6.788;2023-06-19T05:27:43;100581.34;;;25.30;92.15
46955;BME280;32708;51.212;6.788;2023-06-19T05:30:10;100564.22;;;25.51;90.55
46955;BME280;32708;51.212;6.788;2023-06-19T05:32:37;100577.56;;;25.17;92.05
46955;BME280;32708;51.212;6.788;2023-06-19T05:35:04;100570.16;;;25.77;90.34
46955;BME280;32708;51.212;6.788;2023-06-19T05:37:30;100570.34;;;25.90;88.90
46955;BME280;32708;51.212;6.788;2023-06-19T05:39:56;100574.13;;;25.79;89.45
46955;BME280;32708;51.212;6.788;2023-06-19T05:42:23;100571.47;;;25.92;88.74
46955;BME280;32708;51.212;6.788;2023-06-19T05:44:50;100568.84;;;26.05;86.61
46955;BME280;32708;51.212;6.788;2023-06-19T05:47:16;100576.31;;;26.31;86.12
46955;BME280;32708;51.212;6.788;2023-06-19T05:49:46;100573.28;;;25.83;87.51
46955;BME280;32708;51.212;6.788;2023-06-19T05:52:12;100584.97;;;25.97;88.27
46955;BME280;32708;51.212;6.788;2023-06-19T05:54:39;100586.69;;;25.91;88.30
46955;BME280;32708;51.212;6.788;2023-06-19T05:57:06;100583.91;;;25.91;87.47
46955;BME280;32708;51.212;6.788;2023-06-19T05:59:32;100591.94;;;25.89;88.34
46955;BME280;32708;51.212;6.788;2023-06-19T06:01:59;100592.06;;;26.45;85.08
46955;BME280;32708;51.212;6.788;2023-06-19T06:04:25;100603.00;;;25.96;87.24
46955;BME280;32708;51.212;6.788;2023-06-19T06:06:52;100595.13;;;26.11;86.14
46955;BME280;32708;51.212;6.788;2023-06-19T06:09:18;100603.16;;;26.29;84.75
46955;BME280;32708;51.212;6.788;2023-06-19T06:11:44;100610.59;;;26.39;84.88
46955;BME280;32708;51.212;6.788;2023-06-19T06:14:11;100613.00;;;26.37;84.86
46955;BME280;32708;51.212;6.788;2023-06-19T06:16:37;100601.47;;;26.55;83.83
46955;BME280;32708;51.212;6.788;2023-06-19T06:19:04;100602.69;;;26.54;84.50
46955;BME280;32708;51.212;6.788;2023-06-19T06:21:30;100602.09;;;26.23;86.15
46955;BME280;32708;51.212;6.788;2023-06-19T06:23:56;100604.38;;;26.08;86.68
46955;BME280;32708;51.212;6.788;2023-06-19T06:26:23;100610.16;;;26.60;83.68
46955;BME280;32708;51.212;6.788;2023-06-19T06:28:49;100594.13;;;26.81;83.02
46955;BME280;32708;51.212;6.788;2023-06-19T06:31:15;100600.16;;;27.15;80.37
46955;BME280;32708;51.212;6.788;2023-06-19T06:33:42;100593.88;;;27.44;78.86
46955;BME280;32708;51.212;6.788;2023-06-19T06:36:08;100606.69;;;26.33;83.69
46955;BME280;32708;51.212;6.788;2023-06-19T06:38:34;100609.00;;;26.38;84.03
46955;BME280;32708;51.212;6.788;2023-06-19T06:41:01;100608.94;;;26.42;83.14
46955;BME280;32708;51.212;6.788;2023-06-19T06:43:27;100613.34;;;26.19;84.37
46955;BME280;32708;51.212;6.788;2023-06-19T06:45:54;100617.53;;;26.31;84.26
46955;BME280;32708;51.212;6.788;2023-06-19T06:48:21;100616.09;;;25.79;86.70
46955;BME280;32708;51.212;6.788;2023-06-19T06:50:47;100624.28;;;25.90;87.52
46955;BME280;32708;51.212;6.788;2023-06-19T06:53:13;100627.06;;;25.90;86.87
46955;BME280;32708;51.212;6.788;2023-06-19T06:55:40;100632.50;;;26.21;85.74
46955;BME280;32708;51.212;6.788;2023-06-19T06:58:06;100637.53;;;26.10;86.31
46955;BME280;32708;51.212;6.788;2023-06-19T07:00:32;100643.06;;;25.90;86.75
46955;BME280;32708;51.212;6.788;2023-06-19T07:02:59;100645.06;;;25.89;86.49
46955;BME280;32708;51.212;6.788;2023-06-19T07:05:25;100643.03;;;25.66;87.99
46955;BME280;32708;51.212;6.788;2023-06-19T07:07:52;100658.31;;;25.85;87.46
46955;BME280;32708;51.212;6.788;2023-06-19T07:10:18;100657.66;;;26.01;86.83
46955;BME280;32708;51.212;6.788;2023-06-19T07:12:48;100660.50;;;26.44;84.83
46955;BME280;32708;51.212;6.788;2023-06-19T07:15:15;100662.56;;;26.40;84.59
46955;BME280;32708;51.212;6.788;2023-06-19T07:17:42;100672.75;;;25.84;87.35
46955;BME280;32708;51.212;6.788;2023-06-19T07:20:09;100669.69;;;25.98;86.47
46955;BME280;32708;51.212;6.788;2023-06-19T07:22:36;100668.88;;;26.01;86.47
46955;BME280;32708;51.212;6.788;2023-06-19T07:25:04;100665.25;;;26.24;85.52
46955;BME280;32708;51.212;6.788;2023-06-19T07:27:31;100661.56;;;26.27;85.03
46955;BME280;32708;51.212;6.788;2023-06-19T07:29:57;100679.84;;;26.12;85.81
46955;BME280;32708;51.212;6.788;2023-06-19T07:32:24;100664.97;;;26.38;85.06
46955;BME280;32708;51.212;6.788;2023-06-19T07:34:50;100676.94;;;25.72;88.69
46955;BME280;32708;51.212;6.788;2023-06-19T07:37:17;100688.91;;;25.45;91.93
46955;BME280;32708;51.212;6.788;2023-06-19T07:39:49;100703.97;;;24.94;95.70
46955;BME280;32708;51.212;6.788;2023-06-19T07:42:19;100705.88;;;25.31;94.37
46955;BME280;32708;51.212;6.788;2023-06-19T07:44:46;100700.88;;;25.46;94.32
46955;BME280;32708;51.212;6.788;2023-06-19T07:47:15;100694.31;;;25.56;94.21
46955;BME280;32708;51.212;6.788;2023-06-19T07:49:42;100702.84;;;25.18;96.87
46955;BME280;32708;51.212;6.788;2023-06-19T07:52:08;100694.59;;;25.65;93.59
46955;BME280;32708;51.212;6.788;2023-06-19T07:54:54;100702.63;;;25.36;95.89
46955;BME280;32708;51.212;6.788;2023-06-19T07:57:22;100692.88;;;25.71;93.28
46955;BME280;32708;51.212;6.788;2023-06-19T07:59:50;100698.28;;;25.32;95.46
46955;BME280;32708;51.212;6.788;2023-06-19T08:02:17;100701.31;;;25.14;95.84
46955;BME280;32708;51.212;6.788;2023-06-19T08:04:46;100695.19;;;25.80;92.93
46955;BME280;32708;51.212;6.788;2023-06-19T08:07:12;100688.91;;;26.43;89.38
46955;BME280;32708;51.212;6.788;2023-06-19T08:09:39;100689.94;;;26.52;87.46
46955;BME280;32708;51.212;6.788;2023-06-19T08:12:06;100688.19;;;26.78;87.19
46955;BME280;32708;51.212;6.788;2023-06-19T08:14:32;100674.00;;;27.94;80.93
46955;BME280;32708;51.212;6.788;2023-06-19T08:16:59;100662.44;;;28.79;77.30
46955;BME280;32708;51.212;6.788;2023-06-19T08:19:25;100660.28;;;28.70;76.46
46955;BME280;32708;51.212;6.788;2023-06-19T08:21:51;100657.69;;;29.05;74.00
46955;BME280;32708;51.212;6.788;2023-06-19T08:24:18;100659.94;;;29.48;72.18
46955;BME280;32708;51.212;6.788;2023-06-19T08:26:44;100659.41;;;28.73;73.19
46955;BME280;32708;51.212;6.788;2023-06-19T08:29:11;100655.78;;;29.02;72.15
46955;BME280;32708;51.212;6.788;2023-06-19T08:31:37;100656.16;;;28.75;73.12
46955;BME280;32708;51.212;6.788;2023-06-19T08:34:04;100650.53;;;28.75;73.55
46955;BME280;32708;51.212;6.788;2023-06-19T08:36:34;100658.22;;;29.00;71.81
46955;BME280;32708;51.212;6.788;2023-06-19T08:39:00;100656.03;;;28.37;74.35
46955;BME280;32708;51.212;6.788;2023-06-19T08:41:27;100655.41;;;29.00;70.72
46955;BME280;32708;51.212;6.788;2023-06-19T08:43:55;100661.50;;;29.11;69.34
46955;BME280;32708;51.212;6.788;2023-06-19T08:46:21;100654.41;;;28.94;68.52
46955;BME280;32708;51.212;6.788;2023-06-19T08:48:50;100650.25;;;29.11;67.61
46955;BME280;32708;51.212;6.788;2023-06-19T08:51:17;100656.44;;;29.19;68.28
46955;BME280;32708;51.212;6.788;2023-06-19T08:53:56;100667.53;;;28.26;71.24
46955;BME280;32708;51.212;6.788;2023-06-19T08:56:23;100664.16;;;28.02;72.00
46955;BME280;32708;51.212;6.788;2023-06-19T08:58:49;100668.00;;;28.08;71.97
46955;BME280;32708;51.212;6.788;2023-06-19T09:01:19;100672.25;;;27.67;73.83
46955;BME280;32708;51.212;6.788;2023-06-19T09:03:46;100672.56;;;28.02;72.24
46955;BME280;32708;51.212;6.788;2023-06-19T09:06:18;100665.44;;;28.59;71.31
46955;BME280;32708;51.212;6.788;2023-06-19T09:08:44;100673.88;;;27.97;73.30
46955;BME280;32708;51.212;6.788;2023-06-19T09:11:11;100671.94;;;28.98;69.26
46955;BME280;32708;51.212;6.788;2023-06-19T09:13:38;100676.81;;;29.10;66.93
46955;BME280;32708;51.212;6.788;2023-06-19T09:16:07;100669.22;;;30.44;63.00
46955;BME280;32708;51.212;6.788;2023-06-19T09:18:48;100665.66;;;30.30;60.29
46955;BME280;32708;51.212;6.788;2023-06-19T09:21:21;100666.19;;;31.13;58.60
46955;BME280;32708;51.212;6.788;2023-06-19T09:23:51;100668.69;;;30.58;60.46
46955;BME280;32708;51.212;6.788;2023-06-19T09:26:29;100682.94;;;30.41;60.37
46955;BME280;32708;51.212;6.788;2023-06-19T09:28:55;100685.97;;;29.52;62.57
46955;BME280;32708;51.212;6.788;2023-06-19T09:31:33;100697.38;;;29.20;64.60
46955;BME280;32708;51.212;6.788;2023-06-19T09:33:59;100690.44;;;29.37;63.18
46955;BME280;32708;51.212;6.788;2023-06-19T09:36:26;100680.53;;;29.71;61.09
46955;BME280;32708;51.212;6.788;2023-06-19T09:38:54;100686.00;;;30.69;58.70
46955;BME280;32708;51.212;6.788;2023-06-19T09:41:25;100682.66;;;30.83;58.53
46955;BME280;32708;51.212;6.788;2023-06-19T09:43:56;100689.09;;;30.27;59.12
46955;BME280;32708;51.212;6.788;2023-06-19T09:46:30;100683.00;;;29.81;58.81
46955;BME280;32708;51.212;6.788;2023-06-19T09:49:01;100678.09;;;31.08;54.86
46955;BME280;32708;51.212;6.788;2023-06-19T09:51:37;100683.19;;;31.22;53.52
46955;BME280;32708;51.212;6.788;2023-06-19T09:54:10;100681.13;;;30.91;52.73
46955;BME280;32708;51.212;6.788;2023-06-19T09:56:38;100688.59;;;31.38;51.94
46955;BME280;32708;51.212;6.788;2023-06-19T09:59:06;100690.31;;;30.83;52.89
46955;BME280;32708;51.212;6.788;2023-06-19T10:01:37;100691.22;;;31.02;51.77
46955;BME280;32708;51.212;6.788;2023-06-19T10:04:07;100689.91;;;31.56;50.75
46955;BME280;32708;51.212;6.788;2023-06-19T10:06:46;100685.78;;;31.38;50.78
46955;BME280;32708;51.212;6.788;2023-06-19T10:09:15;100690.75;;;31.25;51.49
46955;BME280;32708;51.212;6.788;2023-06-19T10:11:52;100679.22;;;31.50;50.40
46955;BME280;32708;51.212;6.788;2023-06-19T10:14:21;100697.94;;;30.73;53.20
46955;BME280;32708;51.212;6.788;2023-06-19T10:16:48;100693.44;;;31.07;51.10
46955;BME280;32708;51.212;6.788;2023-06-19T10:19:17;100683.56;;;31.33;49.59
46955;BME280;32708;51.212;6.788;2023-06-19T10:21:50;100682.03;;;31.50;49.62
46955;BME280;32708;51.212;6.788;2023-06-19T10:24:19;100682.03;;;31.50;46.98
46955;BME280;32708;51.212;6.788;2023-06-19T10:27:00;100674.63;;;31.35;45.71
46955;BME280;32708;51.212;6.788;2023-06-19T10:29:39;100681.75;;;30.86;47.24
46955;BME280;32708;51.212;6.788;2023-06-19T10:32:06;100672.44;;;31.79;44.68
46955;BME280;32708;51.212;6.788;2023-06-19T10:34:36;100680.00;;;31.11;47.61
46955;BME280;32708;51.212;6.788;2023-06-19T10:37:03;100678.75;;;31.12;47.80
46955;BME280;32708;51.212;6.788;2023-06-19T10:39:30;100679.31;;;31.07;46.66
46955;BME280;32708;51.212;6.788;2023-06-19T10:41:57;100679.19;;;31.82;46.10
46955;BME280;32708;51.212;6.788;2023-06-19T10:44:24;100679.19;;;30.79;46.48
46955;BME280;32708;51.212;6.788;2023-06-19T10:46:53;100672.47;;;31.88;44.32
46955;BME280;32708;51.212;6.788;2023-06-19T10:49:20;100674.84;;;31.49;45.03
46955;BME280;32708;51.212;6.788;2023-06-19T10:51:48;100674.84;;;31.49;44.78
46955;BME280;32708;51.212;6.788;2023-06-19T10:54:15;100667.97;;;31.19;45.29
46955;BME280;32708;51.212;6.788;2023-06-19T10:56:41;100682.47;;;30.21;47.83
46955;BME280;32708;51.212;6.788;2023-06-19T10:59:10;100666.66;;;30.80;46.62
46955;BME280;32708;51.212;6.788;2023-06-19T11:01:45;100667.34;;;31.56;45.02
46955;BME280;32708;51.212;6.788;2023-06-19T11:04:15;100666.72;;;30.89;46.29
46955;BME280;32708;51.212;6.788;2023-06-19T11:06:44;100663.09;;;32.46;43.55
46955;BME280;32708;51.212;6.788;2023-06-19T11:09:12;100659.91;;;32.72;43.48
46955;BME280;32708;51.212;6.788;2023-06-19T11:11:45;100662.47;;;31.56;43.65
46955;BME280;32708;51.212;6.788;2023-06-19T11:14:16;100664.56;;;31.74;43.93
46955;BME280;32708;51.212;6.788;2023-06-19T11:16:47;100667.34;;;31.15;44.98
46955;BME280;32708;51.212;6.788;2023-06-19T11:19:21;100657.09;;;31.89;43.79
46955;BME280;32708;51.212;6.788;2023-06-19T11:21:52;100660.81;;;31.77;44.66
46955;BME280;32708;51.212;6.788;2023-06-19T11:24:19;100656.44;;;32.77;42.07
46955;BME280;32708;51.212;6.788;2023-06-19T11:26:49;100658.91;;;30.93;45.34
46955;BME280;32708;51.212;6.788;2023-06-19T11:29:23;100652.28;;;32.45;42.56
46955;BME280;32708;51.212;6.788;2023-06-19T11:32:09;100660.25;;;32.74;41.92
46955;BME280;32708;51.212;6.788;2023-06-19T11:34:40;100648.56;;;33.42;38.68
46955;BME280;32708;51.212;6.788;2023-06-19T11:37:16;100638.13;;;32.54;38.69
46955;BME280;32708;51.212;6.788;2023-06-19T11:39:46;100636.09;;;32.45;38.93
46955;BME280;32708;51.212;6.788;2023-06-19T11:42:16;100642.94;;;32.90;38.80
46955;BME280;32708;51.212;6.788;2023-06-19T11:45:04;100644.31;;;33.37;37.32
46955;BME280;32708;51.212;6.788;2023-06-19T11:47:34;100647.38;;;33.24;37.50
46955;BME280;32708;51.212;6.788;2023-06-19T11:50:05;100642.16;;;32.71;38.75
46955;BME280;32708;51.212;6.788;2023-06-19T11:52:31;100639.38;;;33.80;37.07
46955;BME280;32708;51.212;6.788;2023-06-19T11:54:58;100637.44;;;33.29;37.23
46955;BME280;32708;51.212;6.788;2023-06-19T11:57:26;100631.91;;;33.67;37.04
46955;BME280;32708;51.212;6.788;2023-06-19T11:59:53;100645.59;;;32.94;39.02
46955;BME280;32708;51.212;6.788;2023-06-19T12:02:19;100638.28;;;32.59;38.96
46955;BME280;32708;51.212;6.788;2023-06-19T12:04:48;100637.72;;;32.98;38.57
46955;BME280;32708;51.212;6.788;2023-06-19T12:07:15;100636.94;;;32.79;38.29
46955;BME280;32708;51.212;6.788;2023-06-19T12:09:41;100638.84;;;32.82;38.89
46955;BME280;32708;51.212;6.788;2023-06-19T12:12:10;100644.25;;;32.16;39.46
46955;BME280;32708;51.212;6.788;2023-06-19T12:14:36;100635.28;;;33.24;38.65
46955;BME280;32708;51.212;6.788;2023-06-19T12:17:03;100632.91;;;32.80;39.26
46955;BME280;32708;51.212;6.788;2023-06-19T12:19:30;100638.63;;;32.34;40.57
46955;BME280;32708;51.212;6.788;2023-06-19T12:21:56;100627.53;;;32.91;39.08
46955;BME280;32708;51.212;6.788;2023-06-19T12:24:23;100626.84;;;32.17;40.72
46955;BME280;32708;51.212;6.788;2023-06-19T12:26:49;100625.91;;;33.42;38.01
46955;BME280;32708;51.212;6.788;2023-06-19T12:29:15;100631.91;;;33.01;38.81
46955;BME280;32708;51.212;6.788;2023-06-19T12:31:44;100624.72;;;33.24;37.61
46955;BME280;32708;51.212;6.788;2023-06-19T12:34:10;100632.94;;;32.62;38.39
46955;BME280;32708;51.212;6.788;2023-06-19T12:36:37;100630.34;;;32.91;37.76
46955;BME280;32708;51.212;6.788;2023-06-19T12:39:03;100627.31;;;32.52;37.76
46955;BME280;32708;51.212;6.788;2023-06-19T12:41:39;100633.09;;;32.49;38.71
46955;BME280;32708;51.212;6.788;2023-06-19T12:44:05;100625.72;;;31.87;39.75
46955;BME280;32708;51.212;6.788;2023-06-19T12:46:32;100637.19;;;33.18;38.22
46955;BME280;32708;51.212;6.788;2023-06-19T12:48:59;100632.69;;;32.93;38.20
46955;BME280;32708;51.212;6.788;2023-06-19T12:51:25;100639.16;;;32.84;37.85
46955;BME280;32708;51.212;6.788;2023-06-19T12:53:51;100632.50;;;32.45;38.49
46955;BME280;32708;51.212;6.788;2023-06-19T12:56:18;100638.28;;;32.14;38.74
46955;BME280;32708;51.212;6.788;2023-06-19T12:58:44;100647.41;;;32.36;38.59